createdAt,value
2018-05-13T00:00:56.038Z,67.44
2018-05-13T00:03:24.368Z,67.87
2018-05-13T00:05:52.721Z,67.77
2018-05-13T00:08:21.057Z,67.47
2018-05-13T00:10:49.415Z,67.53
2018-05-13T00:13:17.740Z,68.24
2018-05-13T00:15:46.091Z,68.14
2018-05-13T00:18:14.436Z,67.84
2018-05-13T00:20:42.788Z,68.11
2018-05-13T00:23:11.121Z,68.05
2018-05-13T00:25:39.472Z,68.04
2018-05-13T00:28:07.809Z,68.12
2018-05-13T00:30:36.172Z,68.02
2018-05-13T00:33:04.505Z,68.14
2018-05-13T00:35:32.934Z,68.04
2018-05-13T00:38:01.194Z,68.17
2018-05-13T00:40:29.549Z,68.18
2018-05-13T00:42:57.881Z,68.35
2018-05-13T00:45:26.242Z,68.69
2018-05-13T00:47:54.572Z,68.49
2018-05-13T00:50:22.934Z,68.62
2018-05-13T00:52:51.265Z,68.46
2018-05-13T00:55:19.621Z,68.31
2018-05-13T00:57:47.948Z,68.49
2018-05-13T01:00:16.309Z,68.43
2018-05-13T01:02:44.673Z,68.80
2018-05-13T01:05:12.972Z,68.77
2018-05-13T01:07:41.334Z,68.71
2018-05-13T01:10:09.674Z,68.80
2018-05-13T01:12:38.020Z,68.77
2018-05-13T01:15:06.359Z,68.21
2018-05-13T01:17:34.708Z,68.60
2018-05-13T01:20:03.044Z,69.07
2018-05-13T01:22:31.398Z,69.04
2018-05-13T01:24:59.732Z,68.83
2018-05-13T01:27:28.085Z,69.12
2018-05-13T01:29:56.415Z,69.28
2018-05-13T01:32:24.775Z,69.15
2018-05-13T01:34:53.106Z,69.43
2018-05-13T01:37:21.462Z,69.89
2018-05-13T01:39:49.792Z,69.95
2018-05-13T01:42:18.144Z,69.82
2018-05-13T01:44:46.485Z,69.74
2018-05-13T01:47:14.847Z,69.77
2018-05-13T01:49:43.184Z,70.24
2018-05-13T01:52:11.536Z,70.24
2018-05-13T01:54:39.868Z,70.16
2018-05-13T01:57:08.221Z,70.29
2018-05-13T01:59:36.561Z,70.18
2018-05-13T02:02:04.917Z,70.41
2018-05-13T02:04:33.247Z,70.27
2018-05-13T02:07:01.601Z,71.42
2018-05-13T02:09:29.936Z,71.42
2018-05-13T02:11:58.284Z,71.67
2018-05-13T02:14:26.615Z,71.70
2018-05-13T02:16:54.985Z,71.88
2018-05-13T02:19:23.316Z,72.19
2018-05-13T02:21:51.672Z,72.15
2018-05-13T02:24:20.009Z,72.13
2018-05-13T02:26:48.376Z,72.20
2018-05-13T02:29:16.697Z,72.49
2018-05-13T02:31:45.046Z,72.75
2018-05-13T02:34:13.385Z,72.91
2018-05-13T02:36:41.741Z,72.44
2018-05-13T02:39:10.073Z,73.47
2018-05-13T02:41:38.425Z,72.75
2018-05-13T02:44:06.753Z,73.46
2018-05-13T02:46:35.105Z,73.52
2018-05-13T02:49:03.437Z,73.83
2018-05-13T02:51:31.793Z,73.76
2018-05-13T02:54:00.130Z,73.98
2018-05-13T02:56:28.480Z,73.60
2018-05-13T02:58:56.809Z,73.96
2018-05-13T03:01:25.171Z,74.34
2018-05-13T03:03:53.529Z,74.65
2018-05-13T03:06:21.856Z,74.63
2018-05-13T03:08:50.545Z,74.50
2018-05-13T03:11:18.878Z,74.36
2018-05-13T03:13:47.227Z,74.48
2018-05-13T03:16:15.562Z,74.23
2018-05-13T03:18:43.916Z,74.42
2018-05-13T03:21:12.249Z,74.58
2018-05-13T03:23:40.634Z,74.50
2018-05-13T03:26:08.960Z,74.50
2018-05-13T03:28:37.321Z,74.28
2018-05-13T03:31:05.662Z,74.34
2018-05-13T03:33:34.041Z,74.62
2018-05-13T03:36:02.368Z,74.65
2018-05-13T03:38:30.725Z,75.32
2018-05-13T03:40:59.056Z,75.14
2018-05-13T03:43:27.409Z,75.40
2018-05-13T03:45:55.749Z,75.27
2018-05-13T03:48:24.109Z,75.56
2018-05-13T03:50:52.440Z,75.15
2018-05-13T03:53:20.801Z,75.43
2018-05-13T03:55:49.134Z,75.72
2018-05-13T03:58:17.484Z,75.79
2018-05-13T04:00:45.817Z,75.78
2018-05-13T04:03:14.168Z,75.96
2018-05-13T04:05:42.504Z,76.02
2018-05-13T04:11:33.533Z,76.89
2018-05-13T04:14:13.520Z,76.84
2018-05-13T04:16:41.854Z,76.57
2018-05-13T04:19:10.200Z,76.79
2018-05-13T04:21:38.537Z,76.50
2018-05-13T04:24:06.889Z,76.22
2018-05-13T04:26:35.229Z,76.29
2018-05-13T04:29:03.584Z,76.33
2018-05-13T04:31:31.928Z,76.20
2018-05-13T04:34:00.281Z,76.22
2018-05-13T04:36:28.613Z,76.27
2018-05-13T04:38:56.965Z,76.37
2018-05-13T04:41:25.292Z,76.51
2018-05-13T04:43:53.665Z,75.83
2018-05-13T04:46:22.071Z,75.86
2018-05-13T04:48:50.360Z,75.95
2018-05-13T04:51:18.699Z,75.68
2018-05-13T04:53:47.060Z,76.08
2018-05-13T04:56:15.397Z,76.04
2018-05-13T04:58:43.745Z,75.57
2018-05-13T05:01:12.079Z,75.68
2018-05-13T05:03:40.428Z,75.45
2018-05-13T05:06:08.765Z,75.92
2018-05-13T05:08:37.122Z,75.87
2018-05-13T05:11:05.451Z,75.64
2018-05-13T05:13:33.809Z,75.87
2018-05-13T05:16:02.140Z,75.64
2018-05-13T05:18:30.496Z,75.81
2018-05-13T05:20:58.834Z,75.71
2018-05-13T05:23:27.193Z,75.83
2018-05-13T05:25:55.524Z,75.59
2018-05-13T05:28:23.876Z,75.61
2018-05-13T05:30:52.217Z,75.78
2018-05-13T05:33:20.586Z,75.43
2018-05-13T05:35:48.996Z,74.97
2018-05-13T05:38:17.273Z,74.37
2018-05-13T05:40:45.620Z,74.18
2018-05-13T05:43:13.973Z,74.46
2018-05-13T05:45:42.309Z,73.94
2018-05-13T05:48:10.661Z,73.58
2018-05-13T05:50:38.997Z,72.67
2018-05-13T05:53:07.357Z,72.58
2018-05-13T05:55:35.692Z,71.61
2018-05-13T05:58:04.041Z,70.83
2018-05-13T06:00:32.388Z,70.50
2018-05-13T06:03:00.729Z,69.91
2018-05-13T06:05:29.088Z,69.39
2018-05-13T06:07:57.419Z,69.09
2018-05-13T06:10:25.774Z,68.86
2018-05-13T06:12:54.109Z,68.27
2018-05-13T06:15:22.465Z,67.94
2018-05-13T06:17:50.800Z,67.57
2018-05-13T06:20:19.153Z,67.42
2018-05-13T06:22:47.489Z,67.06
2018-05-13T06:25:15.925Z,66.90
2018-05-13T06:27:44.166Z,66.11
2018-05-13T06:30:12.523Z,66.63
2018-05-13T06:32:40.857Z,65.93
2018-05-13T06:35:09.214Z,66.23
2018-05-13T06:37:37.555Z,65.06
2018-05-13T06:40:05.905Z,64.66
2018-05-13T06:42:34.243Z,65.71
2018-05-13T06:45:02.593Z,65.79
2018-05-13T06:47:30.924Z,66.86
2018-05-13T06:49:59.277Z,67.31
2018-05-13T06:52:27.617Z,66.52
2018-05-13T06:54:55.983Z,67.04
2018-05-13T06:57:24.393Z,67.67
2018-05-13T06:59:53.281Z,67.23
2018-05-13T07:02:21.621Z,67.08
2018-05-13T07:04:49.981Z,67.17
2018-05-13T07:07:18.317Z,66.78
2018-05-13T07:09:46.676Z,66.82
2018-05-13T07:12:15.009Z,67.21
2018-05-13T07:14:43.365Z,66.93
2018-05-13T07:17:11.702Z,67.51
2018-05-13T07:19:40.088Z,67.48
2018-05-13T07:22:08.428Z,68.48
2018-05-13T07:24:36.786Z,68.71
2018-05-13T07:27:05.124Z,68.48
2018-05-13T07:29:33.484Z,68.49
2018-05-13T07:32:01.816Z,66.94
2018-05-13T07:34:30.191Z,67.21
2018-05-13T07:36:58.528Z,66.42
2018-05-13T07:39:27.624Z,66.27
2018-05-13T07:41:55.958Z,65.78
2018-05-13T07:44:24.324Z,65.35
2018-05-13T07:46:52.666Z,63.97
2018-05-13T07:49:21.031Z,63.01
2018-05-13T07:51:49.368Z,63.72
2018-05-13T07:54:17.724Z,62.88
2018-05-13T07:56:46.060Z,62.90
2018-05-13T07:59:14.410Z,63.58
2018-05-13T08:01:42.760Z,63.64
2018-05-13T08:04:11.101Z,63.32
2018-05-13T08:06:39.672Z,63.14
2018-05-13T08:09:08.151Z,63.72
2018-05-13T08:11:36.831Z,62.83
2018-05-13T08:14:05.280Z,63.13
2018-05-13T08:16:33.990Z,63.55
2018-05-13T08:19:03.392Z,62.89
2018-05-13T08:21:31.748Z,62.54
2018-05-13T08:24:00.076Z,61.57
2018-05-13T08:26:28.441Z,61.40
2018-05-13T08:28:56.773Z,60.81
2018-05-13T08:31:25.132Z,60.68
2018-05-13T08:33:53.472Z,61.69
2018-05-13T08:36:21.841Z,59.71
2018-05-13T08:38:50.513Z,59.61
2018-05-13T08:41:18.869Z,59.58
2018-05-13T08:43:47.208Z,58.17
2018-05-13T08:46:15.578Z,59.36
2018-05-13T08:48:43.918Z,60.65
2018-05-13T08:51:12.275Z,60.37
2018-05-13T08:53:40.608Z,59.19
2018-05-13T08:56:08.993Z,60.36
2018-05-13T08:58:37.369Z,58.94
2018-05-13T09:01:05.731Z,58.94
2018-05-13T09:03:34.069Z,59.97
2018-05-13T09:06:02.433Z,59.17
2018-05-13T09:08:30.829Z,59.34
2018-05-13T09:10:59.133Z,60.30
2018-05-13T09:13:27.590Z,59.58
2018-05-13T09:15:55.949Z,59.53
2018-05-13T09:18:24.972Z,58.71
2018-05-13T09:20:53.344Z,59.10
2018-05-13T09:23:21.672Z,58.87
2018-05-13T09:25:52.957Z,58.04
2018-05-13T09:28:21.307Z,57.54
2018-05-13T09:30:49.670Z,57.90
2018-05-13T09:33:18.017Z,57.62
2018-05-13T09:35:46.385Z,57.96
2018-05-13T09:38:14.726Z,57.06
2018-05-13T09:40:43.085Z,56.75
2018-05-13T09:43:11.425Z,58.33
2018-05-13T09:45:39.954Z,57.24
2018-05-13T09:48:08.285Z,57.34
2018-05-13T09:50:36.645Z,57.47
2018-05-13T09:53:04.989Z,54.97
2018-05-13T09:55:33.371Z,55.77
2018-05-13T09:58:01.722Z,55.76
2018-05-13T10:00:30.091Z,56.69
2018-05-13T10:02:58.439Z,54.85
2018-05-13T10:05:26.783Z,54.53
2018-05-13T10:07:55.142Z,55.14
2018-05-13T10:10:23.485Z,55.33
2018-05-13T10:12:51.845Z,55.37
2018-05-13T10:15:20.188Z,53.21
2018-05-13T10:17:48.550Z,52.38
2018-05-13T10:20:16.885Z,53.01
2018-05-13T10:22:45.244Z,52.72
2018-05-13T10:25:13.599Z,52.95
2018-05-13T10:27:41.950Z,53.19
2018-05-13T10:30:10.285Z,53.02
2018-05-13T10:32:38.641Z,52.62
2018-05-13T10:35:06.981Z,51.63
2018-05-13T10:37:36.702Z,52.36
2018-05-13T10:40:05.331Z,52.66
2018-05-13T10:42:33.825Z,52.10
2018-05-13T10:45:02.132Z,51.88
2018-05-13T10:47:30.493Z,52.25
2018-05-13T10:49:58.828Z,51.17
2018-05-13T10:52:27.188Z,52.43
2018-05-13T10:54:55.522Z,51.70
2018-05-13T10:57:23.890Z,51.70
2018-05-13T10:59:52.226Z,52.14
2018-05-13T11:02:20.589Z,52.57
2018-05-13T11:04:49.028Z,52.43
2018-05-13T11:07:17.301Z,52.23
2018-05-13T11:09:45.727Z,51.68
2018-05-13T11:12:14.069Z,49.75
2018-05-13T11:14:42.406Z,49.06
2018-05-13T11:17:10.994Z,49.26
2018-05-13T11:19:39.338Z,49.52
2018-05-13T11:22:07.693Z,48.79
2018-05-13T11:24:36.033Z,48.17
2018-05-13T11:27:04.397Z,48.32
2018-05-13T11:29:32.734Z,48.37
2018-05-13T11:32:01.213Z,47.67
2018-05-13T11:34:29.553Z,47.35
2018-05-13T11:36:58.625Z,47.59
2018-05-13T11:39:26.973Z,47.46
2018-05-13T11:41:55.970Z,47.97
2018-05-13T11:44:24.310Z,46.80
2018-05-13T11:46:52.665Z,47.76
2018-05-13T11:49:21.096Z,46.33
2018-05-13T11:51:49.453Z,46.84
2018-05-13T11:54:17.802Z,47.03
2018-05-13T11:56:46.163Z,46.36
2018-05-13T11:59:14.500Z,46.68
2018-05-13T12:01:42.853Z,45.51
2018-05-13T12:04:11.198Z,46.07
2018-05-13T12:06:39.566Z,45.48
2018-05-13T12:09:07.900Z,45.43
2018-05-13T12:11:36.245Z,45.88
2018-05-13T12:14:04.605Z,45.51
2018-05-13T12:16:33.052Z,45.90
2018-05-13T12:19:01.474Z,45.05
2018-05-13T12:21:29.749Z,45.66
2018-05-13T12:23:58.117Z,45.39
2018-05-13T12:26:26.464Z,45.36
2018-05-13T12:28:54.857Z,45.07
2018-05-13T12:31:23.186Z,45.14
2018-05-13T12:33:51.553Z,44.74
2018-05-13T12:36:19.893Z,44.97
2018-05-13T12:38:48.253Z,44.76
2018-05-13T12:41:16.584Z,44.72
2018-05-13T12:43:44.948Z,44.57
2018-05-13T12:46:13.289Z,45.09
2018-05-13T12:48:41.648Z,43.85
2018-05-13T12:51:09.994Z,45.08
2018-05-13T12:53:38.352Z,45.26
2018-05-13T12:56:07.849Z,44.74
2018-05-13T12:58:36.207Z,44.44
2018-05-13T13:01:04.554Z,44.47
2018-05-13T13:03:32.902Z,43.10
2018-05-13T13:06:01.261Z,43.25
2018-05-13T13:08:29.654Z,43.08
2018-05-13T13:10:57.952Z,43.58
2018-05-13T13:13:26.312Z,43.42
2018-05-13T13:15:54.648Z,42.99
2018-05-13T13:18:23.949Z,42.58
2018-05-13T13:20:52.293Z,42.61
2018-05-13T13:23:20.652Z,43.03
2018-05-13T13:25:49.010Z,42.49
2018-05-13T13:28:17.360Z,42.81
2018-05-13T13:30:45.780Z,41.93
2018-05-13T13:33:14.071Z,42.77
2018-05-13T13:35:42.409Z,42.44
2018-05-13T13:38:10.773Z,42.91
2018-05-13T13:40:39.118Z,42.62
2018-05-13T13:43:07.487Z,43.22
2018-05-13T13:45:35.849Z,41.67
2018-05-13T13:48:04.201Z,41.94
2018-05-13T13:50:32.540Z,40.65
2018-05-13T13:53:00.916Z,41.63
2018-05-13T13:55:29.969Z,42.23
2018-05-13T13:57:58.379Z,42.17
2018-05-13T14:00:26.748Z,42.42
2018-05-13T14:02:55.110Z,42.10
2018-05-13T14:05:23.485Z,41.63
2018-05-13T14:07:51.846Z,41.37
2018-05-13T14:10:20.179Z,41.09
2018-05-13T14:12:48.505Z,41.91
2018-05-13T14:15:16.928Z,42.16
2018-05-13T14:17:45.276Z,42.22
2018-05-13T14:20:13.948Z,42.51
2018-05-13T14:22:43.049Z,42.39
2018-05-13T14:25:12.601Z,42.01
2018-05-13T14:27:41.488Z,41.59
2018-05-13T14:30:10.836Z,41.67
2018-05-13T14:32:39.540Z,42.77
2018-05-13T14:35:08.146Z,41.48
2018-05-13T14:37:36.827Z,41.73
2018-05-13T14:40:05.389Z,40.96
2018-05-13T14:42:34.620Z,41.97
2018-05-13T14:45:03.220Z,40.86
2018-05-13T14:47:31.772Z,40.02
2018-05-13T14:50:00.347Z,39.21
2018-05-13T14:52:28.841Z,38.76
2018-05-13T14:54:57.359Z,38.91
2018-05-13T14:57:25.848Z,37.93
2018-05-13T14:59:54.532Z,37.21
2018-05-13T15:02:23.019Z,37.73
2018-05-13T15:04:52.469Z,37.94
2018-05-13T15:07:29.903Z,37.24
2018-05-13T15:09:58.633Z,36.68
2018-05-13T15:12:27.308Z,36.95
2018-05-13T15:14:55.736Z,37.81
2018-05-13T15:17:24.270Z,37.59
2018-05-13T15:19:52.975Z,36.58
2018-05-13T15:22:36.202Z,37.34
2018-05-13T15:25:04.765Z,36.14
2018-05-13T15:27:33.291Z,36.19
2018-05-13T15:30:01.929Z,36.31
2018-05-13T15:32:30.421Z,36.80
2018-05-13T15:34:59.193Z,36.93
2018-05-13T15:37:27.709Z,36.27
2018-05-13T15:39:56.178Z,35.88
2018-05-13T15:42:24.700Z,36.47
2018-05-13T15:44:53.738Z,36.16
2018-05-13T15:47:22.137Z,36.68
2018-05-13T15:49:50.487Z,36.08
2018-05-13T15:52:18.812Z,36.63
2018-05-13T15:54:47.839Z,36.53
2018-05-13T15:57:16.169Z,36.52
2018-05-13T15:59:44.521Z,37.13
2018-05-13T16:02:12.853Z,37.46
2018-05-13T16:04:41.200Z,37.78
2018-05-13T16:07:09.533Z,36.88
2018-05-13T16:09:37.889Z,37.31
2018-05-13T16:12:06.228Z,37.20
2018-05-13T16:14:35.561Z,37.45
2018-05-13T16:17:03.891Z,37.41
2018-05-13T16:19:32.232Z,37.63
2018-05-13T16:22:00.556Z,38.85
2018-05-13T16:24:28.908Z,43.67
2018-05-13T16:26:57.257Z,47.18
2018-05-13T16:29:25.671Z,49.41
2018-05-13T16:31:53.988Z,50.88
2018-05-13T16:34:23.096Z,52.43
2018-05-13T16:36:51.432Z,53.40
2018-05-13T16:39:19.793Z,54.08
2018-05-13T16:41:48.121Z,55.00
2018-05-13T16:44:16.460Z,55.43
2018-05-13T16:46:44.821Z,55.78
2018-05-13T16:49:13.161Z,55.98
2018-05-13T16:51:41.521Z,56.09
2018-05-13T16:54:10.616Z,56.23
2018-05-13T16:56:38.972Z,56.78
2018-05-13T16:59:07.315Z,57.00
2018-05-13T17:01:35.724Z,57.16
2018-05-13T17:04:04.015Z,57.02
2018-05-13T17:06:32.372Z,57.38
2018-05-13T17:09:00.717Z,57.15
2018-05-13T17:11:29.076Z,57.35
2018-05-13T17:13:57.421Z,57.63
2018-05-13T17:16:25.781Z,57.37
2018-05-13T17:18:54.121Z,57.58
2018-05-13T17:21:22.478Z,57.60
2018-05-13T17:23:50.816Z,57.60
2018-05-13T17:26:19.183Z,57.60
2018-05-13T17:28:47.518Z,58.04
2018-05-13T17:31:15.907Z,58.13
2018-05-13T17:33:44.227Z,58.42
2018-05-13T17:36:12.585Z,58.69
2018-05-13T17:38:40.929Z,59.19
2018-05-13T17:41:09.321Z,59.20
2018-05-13T17:43:37.632Z,59.20
2018-05-13T17:46:05.993Z,58.59
2018-05-13T17:48:34.322Z,58.52
2018-05-13T17:51:02.673Z,58.32
2018-05-13T17:53:31.030Z,58.60
2018-05-13T17:55:59.355Z,58.76
2018-05-13T17:58:27.672Z,58.71
2018-05-13T18:00:56.061Z,58.71
2018-05-13T18:03:24.368Z,58.55
2018-05-13T18:05:52.718Z,58.47
2018-05-13T18:08:21.056Z,58.58
2018-05-13T18:10:49.397Z,58.73
2018-05-13T18:13:17.781Z,58.49
2018-05-13T18:15:46.124Z,58.68
2018-05-13T18:18:14.449Z,58.62
2018-05-13T18:20:42.806Z,58.54
2018-05-13T18:23:11.128Z,58.16
2018-05-13T18:25:39.481Z,58.35
2018-05-13T18:28:07.898Z,58.55
2018-05-13T18:30:36.189Z,58.76
2018-05-13T18:33:04.521Z,58.83
2018-05-13T18:35:32.864Z,58.98
2018-05-13T18:38:01.193Z,58.87
2018-05-13T18:40:30.336Z,59.21
2018-05-13T18:42:58.665Z,59.01
2018-05-13T18:45:27.049Z,59.15
2018-05-13T18:47:55.393Z,59.48
2018-05-13T18:50:23.880Z,59.41
2018-05-13T18:52:52.102Z,59.39
2018-05-13T18:55:20.436Z,59.50
2018-05-13T18:57:48.800Z,59.62
2018-05-13T19:00:17.438Z,59.64
2018-05-13T19:02:45.797Z,59.73
2018-05-13T19:05:14.136Z,59.63
2018-05-13T19:07:42.493Z,59.93
2018-05-13T19:10:10.833Z,59.64
2018-05-13T19:12:39.201Z,59.60
2018-05-13T19:15:07.528Z,59.40
2018-05-13T19:17:35.897Z,59.48
2018-05-13T19:20:04.966Z,59.66
2018-05-13T19:22:33.354Z,59.79
2018-05-13T19:25:01.677Z,59.78
2018-05-13T19:27:30.037Z,59.79
2018-05-13T19:29:58.379Z,60.28
2018-05-13T19:32:26.741Z,60.88
2018-05-13T19:34:55.083Z,61.68
2018-05-13T19:37:23.437Z,62.48
2018-05-13T19:39:52.698Z,62.61
2018-05-13T19:42:21.059Z,63.23
2018-05-13T19:44:49.392Z,63.29
2018-05-13T19:47:17.753Z,63.76
2018-05-13T19:49:46.107Z,63.68
2018-05-13T19:52:14.449Z,63.68
2018-05-13T19:54:42.788Z,63.98
2018-05-13T19:57:11.143Z,63.92
2018-05-13T19:59:40.225Z,64.07
2018-05-13T20:02:08.585Z,64.02
2018-05-13T20:04:36.921Z,64.32
2018-05-13T20:07:05.286Z,64.81
2018-05-13T20:09:33.665Z,65.06
2018-05-13T20:12:01.979Z,65.03
2018-05-13T20:14:30.321Z,64.99
2018-05-13T20:16:58.681Z,65.04
2018-05-13T20:19:27.017Z,65.03
2018-05-13T20:21:55.374Z,64.73
2018-05-13T20:24:23.711Z,64.77
2018-05-13T20:26:52.105Z,64.55
2018-05-13T20:29:20.444Z,65.02
2018-05-13T20:31:48.801Z,65.19
2018-05-13T20:34:17.145Z,65.29
2018-05-13T20:36:45.504Z,65.03
2018-05-13T20:39:14.568Z,64.77
2018-05-13T20:41:42.924Z,64.79
2018-05-13T20:44:11.341Z,64.49
2018-05-13T20:46:39.625Z,64.28
2018-05-13T20:49:07.961Z,64.39
2018-05-13T20:51:36.300Z,63.93
2018-05-13T20:54:04.670Z,63.87
2018-05-13T20:56:33.017Z,63.95
2018-05-13T20:59:02.293Z,64.95
2018-05-13T21:01:30.581Z,65.56
2018-05-13T21:03:58.941Z,66.19
2018-05-13T21:06:27.276Z,66.15
2018-05-13T21:08:55.642Z,66.08
2018-05-13T21:11:23.989Z,66.16
2018-05-13T21:13:52.344Z,65.94
2018-05-13T21:16:20.682Z,66.11
2018-05-13T21:18:49.838Z,66.15
2018-05-13T21:21:18.173Z,65.72
2018-05-13T21:23:46.537Z,65.64
2018-05-13T21:26:14.880Z,66.46
2018-05-13T21:28:43.249Z,66.88
2018-05-13T21:31:11.591Z,66.83
2018-05-13T21:33:39.957Z,66.54
2018-05-13T21:36:08.297Z,66.81
2018-05-13T21:38:36.672Z,67.01
2018-05-13T21:41:05.009Z,67.37
2018-05-13T21:43:33.370Z,67.11
2018-05-13T21:46:01.697Z,66.88
2018-05-13T21:48:30.055Z,66.94
2018-05-13T21:50:58.384Z,67.36
2018-05-13T21:53:26.737Z,67.23
2018-05-13T21:55:55.073Z,67.38
2018-05-13T21:58:23.424Z,67.09
2018-05-13T22:00:51.757Z,66.69
2018-05-13T22:03:20.116Z,67.26
2018-05-13T22:05:48.449Z,68.13
2018-05-13T22:08:16.802Z,68.64
2018-05-13T22:10:45.141Z,68.08
2018-05-13T22:13:13.497Z,67.76
2018-05-13T22:15:41.825Z,67.89
2018-05-13T22:18:10.181Z,68.38
2018-05-13T22:20:38.508Z,67.81
2018-05-13T22:23:06.864Z,67.34
2018-05-13T22:25:35.243Z,67.60
2018-05-13T22:28:03.561Z,67.91
2018-05-13T22:30:31.884Z,67.55
2018-05-13T22:33:00.245Z,67.39
2018-05-13T22:35:28.577Z,68.05
2018-05-13T22:37:56.933Z,68.50
2018-05-13T22:40:25.268Z,68.13
2018-05-13T22:42:53.616Z,68.17
2018-05-13T22:45:21.953Z,68.37
2018-05-13T22:47:50.306Z,69.08
2018-05-13T22:50:18.637Z,69.01
2018-05-13T22:52:46.981Z,69.00
2018-05-13T22:55:15.332Z,68.90
2018-05-13T22:57:43.673Z,68.47
2018-05-13T23:00:12.030Z,68.44
2018-05-13T23:02:40.365Z,68.24
2018-05-13T23:05:08.716Z,68.67
2018-05-13T23:07:37.054Z,68.92
2018-05-13T23:10:05.409Z,68.91
2018-05-13T23:12:33.746Z,68.94
2018-05-13T23:15:02.096Z,68.90
2018-05-13T23:17:30.432Z,69.00
2018-05-13T23:19:58.780Z,68.87
2018-05-13T23:22:34.813Z,68.74
2018-05-13T23:25:03.161Z,68.79
2018-05-13T23:27:31.488Z,68.92
2018-05-13T23:29:59.841Z,69.19
2018-05-13T23:32:28.180Z,69.34
2018-05-13T23:34:56.537Z,69.31
2018-05-13T23:37:24.869Z,69.49
2018-05-13T23:39:53.216Z,69.68
2018-05-13T23:42:21.553Z,69.79
2018-05-13T23:44:49.904Z,69.84
2018-05-13T23:47:18.233Z,69.51
2018-05-13T23:49:46.592Z,69.12
2018-05-13T23:52:14.926Z,68.83
2018-05-13T23:54:43.277Z,68.95
2018-05-13T23:57:11.624Z,68.95
2018-05-13T23:59:39.982Z,69.05
